Time;durP1;ratioP1;P1;durP2;ratioP2;P2;SDS_P1;SDS_P2;PMS_P1;PMS_P2;Temp;Humidity;BMP_temperature;BMP_pressure;BME280_temperature;BME280_humidity;BME280_pressure;Samples;Min_cycle;Max_cycle;Signal;HPM_P1;HPM_P2
2021/01/11 00:02:03;;;;;;;34.97;20.57;;;4.20;90.30;;;;;;4939278;29;20027;-72
2021/01/11 00:04:28;;;;;;;40.20;22.77;;;4.20;90.30;;;;;;4956447;29;20020;-73
2021/01/11 00:06:54;;;;;;;41.93;22.90;;;4.20;90.40;;;;;;4939130;29;20046;-73
2021/01/11 00:09:21;;;;;;;36.43;21.07;;;4.20;90.40;;;;;;4923244;29;20035;-72
2021/01/11 00:11:47;;;;;;;37.97;21.77;;;4.20;90.50;;;;;;4939279;29;20035;-72
2021/01/11 00:14:12;;;;;;;38.97;21.83;;;4.20;90.60;;;;;;4939224;29;20043;-73
2021/01/11 00:16:38;;;;;;;38.53;22.77;;;4.20;90.50;;;;;;4938757;29;20035;-73
2021/01/11 00:19:04;;;;;;;42.07;21.47;;;4.20;90.60;;;;;;4923150;29;20031;-73
2021/01/11 00:21:30;;;;;;;37.80;21.50;;;4.20;90.60;;;;;;4939285;29;20459;-74
2021/01/11 00:23:56;;;;;;;36.97;20.77;;;4.10;90.60;;;;;;4956375;29;20039;-73
2021/01/11 00:26:22;;;;;;;39.23;21.83;;;4.20;90.70;;;;;;4938969;29;20046;-73
2021/01/11 00:28:47;;;;;;;37.40;21.43;;;4.20;90.60;;;;;;4922921;29;20035;-74
2021/01/11 00:31:21;;;;;;;37.70;21.27;;;4.20;90.90;;;;;;4938925;29;20041;-74
2021/01/11 00:33:47;;;;;;;;;;;4.20;90.70;;;;;;4955934;29;20046;-74
2021/01/11 00:36:12;;;;;;;39.90;20.30;;;4.20;90.70;;;;;;4938803;29;19921;-73
2021/01/11 00:38:38;;;;;;;40.80;21.63;;;4.10;90.70;;;;;;4938513;29;20026;-73
2021/01/11 00:41:04;;;;;;;39.93;20.93;;;4.10;90.70;;;;;;4938801;29;20086;-74
2021/01/11 00:43:29;;;;;;;40.33;21.73;;;4.10;90.80;;;;;;4938760;29;20433;-73
2021/01/11 00:45:55;;;;;;;40.87;22.87;;;4.10;90.80;;;;;;4938288;29;20055;-73
2021/01/11 00:48:20;;;;;;;37.73;21.40;;;4.10;90.90;;;;;;4906722;29;20117;-73
2021/01/11 00:50:46;;;;;;;44.10;22.77;;;4.10;90.70;;;;;;4938544;29;20031;-73
2021/01/11 00:53:12;;;;;;;37.00;20.57;;;4.20;90.80;;;;;;4938723;29;20027;-73
2021/01/11 00:55:37;;;;;;;41.73;23.33;;;4.20;90.90;;;;;;4922376;29;20038;-74
2021/01/11 00:58:03;;;;;;;39.10;20.53;;;4.20;91.00;;;;;;4955442;29;20099;-74
2021/01/11 01:00:28;;;;;;;43.70;22.47;;;4.20;91.00;;;;;;4955373;29;20501;-73
2021/01/11 01:02:54;;;;;;;44.83;23.93;;;4.10;91.10;;;;;;4906639;29;20537;-73
2021/01/11 01:05:20;;;;;;;46.00;24.03;;;4.10;91.10;;;;;;4938594;29;20035;-73
2021/01/11 01:07:46;;;;;;;43.00;21.83;;;4.10;91.10;;;;;;4938102;29;20031;-73
2021/01/11 01:10:12;;;;;;;51.33;26.23;;;4.10;91.20;;;;;;4938136;29;20070;-72
2021/01/11 01:12:38;;;;;;;47.47;25.23;;;4.10;91.30;;;;;;4938413;29;20093;-73
2021/01/11 01:15:06;;;;;;;44.63;23.43;;;4.10;91.30;;;;;;4938189;29;20543;-74
2021/01/11 01:17:33;;;;;;;47.83;25.90;;;4.10;91.30;;;;;;4922434;29;20479;-73
2021/01/11 01:19:59;;;;;;;46.70;25.10;;;4.10;91.30;;;;;;4922604;29;20023;-73
2021/01/11 01:22:24;;;;;;;50.67;25.37;;;4.10;91.40;;;;;;4922292;29;20372;-73
2021/01/11 01:24:50;;;;;;;49.67;25.77;;;4.10;91.50;;;;;;4906479;29;20055;-73
2021/01/11 01:27:15;;;;;;;47.43;23.53;;;4.10;91.40;;;;;;4938323;29;20046;-74
2021/01/11 01:29:41;;;;;;;46.20;24.57;;;4.10;91.50;;;;;;4922823;29;20031;-72
2021/01/11 01:32:06;;;;;;;47.77;25.27;;;4.10;91.50;;;;;;4922165;29;20495;-72
2021/01/11 01:34:32;;;;;;;52.40;26.57;;;4.10;91.60;;;;;;4938431;29;20035;-74
2021/01/11 01:36:58;;;;;;;58.30;29.37;;;4.10;91.60;;;;;;4922211;29;20032;-73
2021/01/11 01:39:23;;;;;;;52.40;26.83;;;4.10;91.70;;;;;;4955138;29;20040;-73
2021/01/11 01:41:49;;;;;;;50.17;24.77;;;4.00;91.70;;;;;;4922362;29;20024;-74
2021/01/11 01:44:14;;;;;;;53.63;27.40;;;4.00;91.80;;;;;;4937870;29;20390;-79
2021/01/11 01:46:40;;;;;;;57.47;28.50;;;4.00;91.80;;;;;;4937799;29;20043;-78
2021/01/11 01:49:07;;;;;;;52.57;27.37;;;4.00;91.90;;;;;;4937726;29;20482;-79
2021/01/11 01:51:33;;;;;;;58.43;29.10;;;4.00;92.00;;;;;;4937838;29;20505;-80
2021/01/11 01:53:59;;;;;;;56.30;28.73;;;4.00;92.00;;;;;;4937772;29;20497;-79
2021/01/11 01:56:25;;;;;;;50.63;26.63;;;3.90;92.10;;;;;;4954858;29;20035;-77
2021/01/11 01:58:51;;;;;;;54.37;27.87;;;4.00;92.10;;;;;;4957242;28;20027;-79
2021/01/11 02:01:17;;;;;;;61.97;29.53;;;3.90;92.10;;;;;;4925579;29;20066;-79
2021/01/11 02:03:43;;;;;;;62.50;30.73;;;3.90;92.10;;;;;;4925331;29;20047;-79
2021/01/11 02:06:09;;;;;;;59.03;29.43;;;3.90;92.10;;;;;;4958510;29;20049;-79
2021/01/11 02:08:39;;;;;;;59.53;30.97;;;3.90;92.10;;;;;;4941238;29;20031;-79
2021/01/11 02:11:51;;;;;;;64.87;32.43;;;3.90;92.10;;;;;;4941106;29;20106;-79
2021/01/11 02:14:23;;;;;;;68.43;33.87;;;3.90;92.10;;;;;;4921072;29;20050;-79
2021/01/11 02:17:08;;;;;;;69.57;33.53;;;3.90;92.10;;;;;;4958117;29;20470;-79
2021/01/11 02:20:07;;;;;;;69.22;33.45;;;3.80;92.10;;;;;;4958148;29;20110;-80
2021/01/11 02:22:51;;;;;;;66.40;33.30;;;3.80;92.10;;;;;;4958107;29;20027;-79
2021/01/11 02:25:38;;;;;;;69.72;34.75;;;3.80;92.10;;;;;;4958130;29;20030;-79
2021/01/11 02:28:30;;;;;;;69.83;32.97;;;3.80;92.10;;;;;;4958080;29;20055;-79
2021/01/11 02:30:59;;;;;;;76.67;35.93;;;3.80;92.10;;;;;;4939998;29;20495;-79
2021/01/11 02:33:26;;;;;;;75.10;35.07;;;3.80;92.10;;;;;;4924697;29;20051;-79
2021/01/11 02:36:05;;;;;;;70.40;34.80;;;3.80;92.10;;;;;;4940629;29;20079;-80
2021/01/11 02:38:32;;;;;;;70.97;35.33;;;3.80;92.10;;;;;;4940570;29;20032;-79
2021/01/11 02:40:58;;;;;;;77.20;37.27;;;3.80;92.10;;;;;;4940625;29;20038;-79
2021/01/11 02:43:23;;;;;;;74.87;35.90;;;3.70;92.10;;;;;;4957751;29;20031;-79
2021/01/11 02:45:49;;;;;;;78.37;36.73;;;3.70;92.20;;;;;;4908996;29;20501;-79
2021/01/11 02:48:21;;;;;;;76.07;37.57;;;3.70;92.10;;;;;;4924953;29;20386;-79
2021/01/11 02:51:09;;;;;;;72.73;36.47;;;3.70;92.20;;;;;;4957884;29;20423;-79
2021/01/11 02:53:42;;;;;;;79.00;36.67;;;3.70;92.20;;;;;;4940273;29;20505;-79
2021/01/11 02:56:12;;;;;;;70.43;35.83;;;3.70;92.10;;;;;;4957557;29;20114;-79
2021/01/11 02:58:46;;;;;;;75.47;36.27;;;3.70;92.20;;;;;;4940417;29;20043;-78
2021/01/11 03:01:16;;;;;;;73.22;36.08;;;3.70;92.20;;;;;;4957425;29;20024;-79
2021/01/11 03:03:46;;;;;;;76.43;35.53;;;3.60;92.20;;;;;;4957347;29;20034;-80
2021/01/11 03:06:12;;;;;;;79.07;37.67;;;3.60;92.20;;;;;;4957317;29;20102;-79
2021/01/11 03:08:38;;;;;;;69.87;35.30;;;3.60;92.10;;;;;;4940053;29;20023;-79
2021/01/11 03:11:04;;;;;;;78.63;36.27;;;3.60;92.20;;;;;;4956376;28;20031;-79
2021/01/11 03:13:30;;;;;;;74.67;35.87;;;3.60;92.20;;;;;;4924032;29;20435;-79
2021/01/11 03:15:55;;;;;;;75.87;36.23;;;3.60;92.20;;;;;;4957022;29;20031;-80
2021/01/11 03:18:21;;;;;;;76.60;35.73;;;3.50;92.20;;;;;;4957156;29;20057;-80
2021/01/11 03:20:47;;;;;;;73.70;35.67;;;3.50;92.30;;;;;;4924163;29;20075;-79
2021/01/11 03:23:12;;;;;;;82.07;36.57;;;3.50;92.30;;;;;;4939935;29;20027;-80
2021/01/11 03:25:40;;;;;;;74.73;35.47;;;3.50;92.30;;;;;;4939713;29;20079;-80
2021/01/11 03:28:06;;;;;;;84.63;36.83;;;3.50;92.30;;;;;;4939782;29;20034;-80
2021/01/11 03:30:31;;;;;;;79.87;37.53;;;3.50;92.30;;;;;;4923866;29;20031;-80
2021/01/11 03:32:57;;;;;;;80.50;36.83;;;3.50;92.30;;;;;;4956652;29;20403;-81
2021/01/11 03:35:23;;;;;;;88.17;37.23;;;3.50;92.40;;;;;;4956892;29;20032;-79
2021/01/11 03:37:48;;;;;;;79.57;36.70;;;3.50;92.40;;;;;;4956771;29;20035;-79
2021/01/11 03:40:14;;;;;;;77.13;34.80;;;3.50;92.40;;;;;;4956785;29;20043;-79
2021/01/11 03:42:40;;;;;;;78.87;34.27;;;3.50;92.40;;;;;;4956701;29;20031;-79
2021/01/11 03:45:07;;;;;;;85.47;37.57;;;3.40;92.40;;;;;;4939570;29;20114;-80
2021/01/11 03:47:33;;;;;;;83.53;36.63;;;3.40;92.50;;;;;;4956547;29;20082;-80
2021/01/11 03:49:59;;;;;;;80.83;37.50;;;3.40;92.50;;;;;;4923491;29;20390;-79
2021/01/11 03:52:25;;;;;;;84.80;36.50;;;3.40;92.60;;;;;;4956422;29;20035;-79
2021/01/11 03:54:51;;;;;;;84.87;36.40;;;3.40;92.70;;;;;;4956534;29;20036;-80
2021/01/11 03:57:16;;;;;;;85.27;36.27;;;3.40;92.80;;;;;;4923224;29;20038;-79
2021/01/11 03:59:42;;;;;;;84.00;37.57;;;3.30;92.80;;;;;;4923392;29;20020;-81
2021/01/11 04:02:08;;;;;;;93.43;40.07;;;3.30;93.00;;;;;;4939173;29;20387;-80
2021/01/11 04:04:33;;;;;;;96.07;39.80;;;3.30;93.10;;;;;;4939033;29;20104;-80
2021/01/11 04:06:59;;;;;;;93.27;37.43;;;3.30;93.30;;;;;;4923276;29;20031;-80
2021/01/11 04:09:27;;;;;;;98.70;38.63;;;3.20;93.30;;;;;;4939219;29;20062;-80
2021/01/11 04:11:53;;;;;;;99.13;37.73;;;3.20;93.40;;;;;;4938970;29;20038;-79
2021/01/11 04:14:20;;;;;;;98.83;38.93;;;3.20;93.50;;;;;;4938917;29;20023;-80
2021/01/11 04:16:45;;;;;;;91.70;34.57;;;3.20;93.60;;;;;;4956018;29;20031;-80
2021/01/11 04:19:11;;;;;;;101.40;39.13;;;3.10;93.60;;;;;;4956022;29;20034;-81
2021/01/11 04:21:40;;;;;;;90.33;33.53;;;3.10;94.00;;;;;;4923175;29;20491;-81
2021/01/11 04:24:06;;;;;;;94.33;36.50;;;3.10;93.80;;;;;;4956022;29;20046;-79
2021/01/11 04:26:32;;;;;;;83.03;34.10;;;3.10;93.90;;;;;;4939163;29;20035;-79
2021/01/11 04:28:58;;;;;;;93.43;34.90;;;3.10;93.90;;;;;;4938902;29;20031;-80
2021/01/11 04:31:23;;;;;;;93.00;36.60;;;3.10;94.00;;;;;;4923044;29;20030;-80
2021/01/11 04:33:49;;;;;;;100.63;36.07;;;3.10;94.00;;;;;;4955796;29;20047;-80
2021/01/11 04:36:14;;;;;;;90.67;35.30;;;3.00;94.00;;;;;;4907074;29;20023;-79
2021/01/11 04:38:40;;;;;;;91.40;34.90;;;3.00;94.10;;;;;;4955775;29;20031;-80
2021/01/11 04:41:06;;;;;;;92.30;32.47;;;3.00;94.10;;;;;;4938590;29;20019;-80
2021/01/11 04:43:38;;;;;;;88.47;33.90;;;3.00;94.10;;;;;;4938523;29;20027;-79
2021/01/11 04:46:04;;;;;;;91.80;33.33;;;3.00;94.10;;;;;;4955555;29;20028;-80
2021/01/11 04:48:31;;;;;;;87.43;37.57;;;3.00;94.10;;;;;;4938827;29;20038;-81
2021/01/11 04:50:57;;;;;;;96.70;33.87;;;3.00;94.10;;;;;;4938282;29;20031;-80
2021/01/11 04:53:26;;;;;;;95.67;34.70;;;3.00;94.10;;;;;;4933820;29;20403;-80
2021/01/11 04:55:53;;;;;;;89.73;33.90;;;3.00;94.20;;;;;;4943896;29;20026;-80
2021/01/11 04:58:21;;;;;;;97.27;35.10;;;3.00;94.20;;;;;;4924546;29;20082;-80
2021/01/11 05:00:48;;;;;;;95.93;34.37;;;3.00;94.20;;;;;;4916600;29;20020;-79
2021/01/11 05:03:14;;;;;;;91.00;33.37;;;3.00;94.30;;;;;;4919146;29;20503;-80
2021/01/11 05:05:45;;;;;;;97.23;35.67;;;3.00;94.30;;;;;;4936270;29;20040;-80
2021/01/11 05:08:11;;;;;;;89.70;34.93;;;2.90;94.30;;;;;;4919176;29;20020;-79
2021/01/11 05:10:39;;;;;;;88.13;32.80;;;2.90;94.40;;;;;;4919078;29;20038;-80
2021/01/11 05:13:06;;;;;;;86.30;33.33;;;2.90;94.30;;;;;;4919242;29;20016;-79
2021/01/11 05:15:42;;;;;;;96.63;34.70;;;3.00;94.50;;;;;;4903318;29;20115;-79
2021/01/11 05:18:16;;;;;;;88.03;34.90;;;3.00;94.50;;;;;;4919113;29;20110;-80
2021/01/11 05:20:42;;;;;;;90.65;36.15;;;3.00;94.50;;;;;;4919071;29;20542;-80
2021/01/11 05:23:17;;;;;;;94.83;36.40;;;3.00;94.60;;;;;;4935984;29;20028;-80
2021/01/11 05:25:45;;;;;;;95.80;35.37;;;3.00;94.70;;;;;;4919085;29;20028;-79
2021/01/11 05:28:12;;;;;;;86.90;34.60;;;3.00;94.70;;;;;;4936095;29;20032;-77
2021/01/11 05:30:47;;;;;;;94.87;34.47;;;3.00;94.70;;;;;;4919007;29;20046;-79
2021/01/11 05:33:27;;;;;;;98.03;34.80;;;3.00;94.70;;;;;;4920051;29;20075;-80
2021/01/11 05:36:12;;;;;;;93.83;36.03;;;3.10;94.80;;;;;;4923613;29;20112;-78
2021/01/11 05:38:40;;;;;;;89.67;35.77;;;3.10;94.80;;;;;;4922742;29;20059;-80
2021/01/11 05:41:39;;;;;;;98.03;36.93;;;3.10;94.80;;;;;;4939716;29;20472;-79
2021/01/11 05:44:15;;;;;;;92.63;35.07;;;3.10;95.20;;;;;;4922613;29;20024;-80
2021/01/11 05:46:41;;;;;;;108.57;38.13;;;3.10;94.90;;;;;;4922558;29;20487;-80
2021/01/11 05:49:11;;;;;;;104.27;36.37;;;3.10;94.90;;;;;;4906770;29;20479;-80
2021/01/11 05:51:38;;;;;;;104.57;36.87;;;3.10;94.90;;;;;;4922505;29;20039;-80
2021/01/11 05:54:05;;;;;;;92.63;36.40;;;3.20;94.90;;;;;;4922514;29;20024;-80
2021/01/11 05:57:09;;;;;;;114.33;43.07;;;3.20;94.90;;;;;;4939518;29;20058;-80
2021/01/11 05:59:37;;;;;;;111.47;40.10;;;3.20;94.90;;;;;;4828509;29;20106;-80
2021/01/11 06:02:03;;;;;;;108.97;40.60;;;3.20;95.00;;;;;;4843780;29;20504;-80
2021/01/11 06:04:31;;;;;;;117.07;43.40;;;3.20;95.00;;;;;;4874061;29;20031;-80
2021/01/11 06:06:56;;;;;;;119.17;42.97;;;3.20;95.00;;;;;;4922602;29;20462;-80
2021/01/11 06:09:22;;;;;;;118.20;45.80;;;3.20;95.00;;;;;;4922601;29;20063;-80
2021/01/11 06:11:49;;;;;;;111.73;44.53;;;3.30;95.00;;;;;;4922374;29;20118;-81
2021/01/11 06:14:18;;;;;;;102.27;41.40;;;3.30;95.00;;;;;;4922211;29;20023;-79
2021/01/11 06:16:44;;;;;;;111.23;46.10;;;3.30;95.00;;;;;;4921162;29;20028;-79
2021/01/11 06:19:10;;;;;;;113.37;47.13;;;3.30;95.00;;;;;;4938765;29;20035;-79
2021/01/11 06:21:35;;;;;;;118.67;49.43;;;3.30;94.90;;;;;;4909387;29;20036;-80
2021/01/11 06:24:17;;;;;;;117.60;49.53;;;3.40;94.90;;;;;;4916117;29;20028;-81
2021/01/11 06:26:44;;;;;;;110.53;45.23;;;3.40;94.90;;;;;;4924549;29;20035;-79
2021/01/11 06:29:30;;;;;;;111.20;46.90;;;3.40;94.90;;;;;;4944472;29;20047;-81
2021/01/11 06:31:57;;;;;;;112.60;48.13;;;3.30;94.80;;;;;;4925413;29;20024;-80
2021/01/11 06:34:33;;;;;;;113.17;49.40;;;3.40;94.90;;;;;;4928150;29;20051;-80
2021/01/11 06:36:59;;;;;;;105.73;48.30;;;3.40;94.90;;;;;;4929483;29;20023;-80
2021/01/11 06:39:30;;;;;;;115.30;50.30;;;3.40;94.90;;;;;;4927232;29;20027;-80
2021/01/11 06:41:58;;;;;;;100.07;47.00;;;3.40;94.90;;;;;;4947934;29;20111;-80
2021/01/11 06:44:25;;;;;;;104.43;46.07;;;3.40;94.90;;;;;;4937240;29;20030;-79
2021/01/11 06:46:50;;;;;;;104.53;49.07;;;3.40;95.00;;;;;;4921490;29;20023;-80
2021/01/11 06:49:27;;;;;;;100.03;47.00;;;3.40;95.00;;;;;;4926384;29;20516;-80
2021/01/11 06:52:12;;;;;;;92.03;44.77;;;3.40;95.00;;;;;;4957734;29;20383;-81
2021/01/11 06:54:44;;;;;;;104.00;48.63;;;3.40;95.00;;;;;;4921157;29;20040;-80
2021/01/11 06:57:13;;;;;;;104.93;49.97;;;3.40;95.00;;;;;;4933948;29;20032;-79
2021/01/11 06:59:39;;;;;;;99.73;49.20;;;3.40;95.00;;;;;;4940346;29;20030;-80
2021/01/11 07:02:18;;;;;;;98.90;47.37;;;3.40;95.00;;;;;;4934386;29;20039;-80
2021/01/11 07:04:44;;;;;;;91.30;46.03;;;3.40;95.00;;;;;;4952621;29;20063;-80
2021/01/11 07:07:23;;;;;;;97.03;47.97;;;3.40;94.90;;;;;;4940385;29;20086;-80
2021/01/11 07:09:55;;;;;;;93.13;46.80;;;3.40;94.90;;;;;;4940155;29;20386;-80
2021/01/11 07:12:21;;;;;;;101.27;49.07;;;3.40;94.90;;;;;;4957321;29;20025;-81
2021/01/11 07:15:14;;;;;;;93.80;45.67;;;3.40;94.90;;;;;;4957344;29;20058;-79
2021/01/11 07:17:47;;;;;;;93.73;46.00;;;3.40;94.90;;;;;;4949072;28;20090;-79
2021/01/11 07:20:15;;;;;;;91.68;44.45;;;3.40;94.90;;;;;;4947031;28;20431;-80
2021/01/11 07:22:43;;;;;;;92.07;46.07;;;3.40;94.90;;;;;;4943901;28;20031;-80
2021/01/11 07:25:21;;;;;;;85.23;43.40;;;3.50;94.90;;;;;;4889678;29;20392;-80
2021/01/11 07:27:46;;;;;;;78.93;41.47;;;3.40;94.80;;;;;;4945359;29;20123;-81
2021/01/11 07:30:12;;;;;;;79.47;43.40;;;3.50;94.90;;;;;;4931138;29;20113;-80
2021/01/11 07:32:38;;;;;;;86.03;44.20;;;3.40;94.80;;;;;;4936197;29;20451;-81
2021/01/11 07:35:04;;;;;;;83.43;41.77;;;3.40;94.80;;;;;;4940879;28;20074;-76
2021/01/11 07:37:30;;;;;;;77.10;41.23;;;3.40;94.90;;;;;;4957902;28;20474;-75
2021/01/11 07:40:03;;;;;;;75.33;40.73;;;3.50;94.90;;;;;;4920343;29;20083;-76
2021/01/11 07:42:28;;;;;;;72.37;39.60;;;3.50;95.00;;;;;;4920358;29;20435;-75
2021/01/11 07:44:54;;;;;;;73.37;40.10;;;3.50;94.90;;;;;;4920289;29;20024;-75
2021/01/11 07:47:20;;;;;;;70.37;39.33;;;3.50;94.90;;;;;;4920327;29;20031;-75
2021/01/11 07:49:50;;;;;;;71.50;39.33;;;3.60;94.90;;;;;;4917726;29;20443;-75
2021/01/11 07:52:18;;;;;;;70.97;39.73;;;3.50;94.80;;;;;;4930560;29;20110;-75
2021/01/11 07:54:44;;;;;;;73.60;39.60;;;3.50;94.80;;;;;;4945086;29;20045;-74
2021/01/11 07:57:12;;;;;;;75.33;40.47;;;3.50;94.70;;;;;;4929608;29;20028;-74
2021/01/11 07:59:38;;;;;;;69.30;38.43;;;3.60;94.70;;;;;;4933935;29;20022;-74
2021/01/11 08:02:14;;;;;;;73.97;39.37;;;3.60;94.70;;;;;;4938840;29;20110;-76
2021/01/11 08:04:42;;;;;;;70.87;38.33;;;3.60;94.60;;;;;;4939009;29;20086;-76
2021/01/11 08:07:10;;;;;;;66.67;37.63;;;3.60;94.60;;;;;;4939345;29;20581;-74
2021/01/11 08:09:37;;;;;;;68.70;38.20;;;3.60;94.50;;;;;;4926696;29;20071;-74
2021/01/11 08:12:16;;;;;;;65.53;36.53;;;3.60;94.50;;;;;;4944500;29;20031;-74
2021/01/11 08:14:46;;;;;;;63.43;35.27;;;3.70;94.40;;;;;;4919369;29;20373;-75
2021/01/11 08:17:21;;;;;;;63.83;34.47;;;3.60;94.40;;;;;;4919468;29;20514;-74
2021/01/11 08:19:55;;;;;;;58.67;35.50;;;3.60;94.30;;;;;;4919525;29;20380;-74
2021/01/11 08:22:21;;;;;;;57.88;33.60;;;3.60;94.30;;;;;;4932745;29;20471;-74
2021/01/11 08:25:07;;;;;;;64.73;35.33;;;3.60;94.20;;;;;;4938721;29;20035;-74
2021/01/11 08:27:40;;;;;;;63.10;33.33;;;3.60;94.20;;;;;;4957225;28;20490;-76
2021/01/11 08:30:09;;;;;;;60.73;34.53;;;3.70;94.20;;;;;;4957824;28;20038;-74
2021/01/11 08:32:36;;;;;;;61.10;34.60;;;3.70;94.20;;;;;;4957127;28;20558;-76
2021/01/11 08:35:08;;;;;;;60.67;33.50;;;3.70;94.20;;;;;;4925996;28;20058;-75
2021/01/11 08:37:33;;;;;;;64.50;34.50;;;3.70;94.10;;;;;;4974745;28;20058;-74
2021/01/11 08:40:06;;;;;;;61.23;34.37;;;3.70;94.10;;;;;;4975382;28;20533;-75
2021/01/11 08:42:34;;;;;;;63.13;33.63;;;3.70;94.10;;;;;;4974968;28;20467;-75
2021/01/11 08:45:27;;;;;;;59.27;33.47;;;3.70;94.10;;;;;;4974709;28;20038;-75
2021/01/11 08:48:12;;;;;;;57.90;31.07;;;3.70;94.00;;;;;;4963110;28;20049;-75
2021/01/11 08:50:50;;;;;;;57.57;32.07;;;3.70;94.00;;;;;;4961734;28;20055;-74
2021/01/11 08:53:21;;;;;;;58.03;32.00;;;3.70;94.00;;;;;;4938425;29;20023;-74
2021/01/11 08:55:57;;;;;;;56.33;31.37;;;3.70;93.90;;;;;;4922383;29;20027;-74
2021/01/11 08:58:23;;;;;;;59.57;33.30;;;3.70;93.90;;;;;;4955273;29;20031;-75
2021/01/11 09:00:49;;;;;;;56.37;31.97;;;3.70;94.00;;;;;;4938572;29;20035;-75
2021/01/11 09:03:15;;;;;;;57.90;32.70;;;3.80;93.90;;;;;;4937887;29;20031;-74
2021/01/11 09:05:42;;;;;;;59.83;33.50;;;3.70;93.90;;;;;;4922220;29;20059;-75
2021/01/11 09:08:19;;;;;;;56.73;31.83;;;3.70;93.90;;;;;;4937333;29;20360;-73
2021/01/11 09:10:45;;;;;;;54.97;31.57;;;3.80;93.90;;;;;;4907540;29;20039;-75
2021/01/11 09:13:18;;;;;;;55.37;31.73;;;3.80;93.80;;;;;;4938227;29;20521;-74
2021/01/11 09:15:44;;;;;;;54.37;30.07;;;3.80;93.80;;;;;;4937564;29;20474;-75
2021/01/11 09:18:12;;;;;;;49.60;28.80;;;3.80;93.70;;;;;;4937476;29;20046;-76
2021/01/11 09:20:39;;;;;;;51.50;30.20;;;3.80;93.70;;;;;;4922023;29;20042;-74
2021/01/11 09:23:05;;;;;;;53.17;29.93;;;3.80;93.70;;;;;;4955189;29;20025;-73
2021/01/11 09:25:32;;;;;;;51.23;29.77;;;3.80;93.60;;;;;;4906195;29;20039;-74
2021/01/11 09:28:00;;;;;;;50.00;29.37;;;3.90;93.60;;;;;;4954929;29;20495;-74
2021/01/11 09:30:28;;;;;;;50.33;27.60;;;3.90;93.60;;;;;;4938282;29;20042;-74
2021/01/11 09:32:53;;;;;;;50.17;28.20;;;3.90;93.60;;;;;;4918501;29;20134;-75
2021/01/11 09:35:19;;;;;;;51.00;27.57;;;3.90;93.50;;;;;;4903447;29;20492;-76
2021/01/11 09:37:45;;;;;;;51.17;29.80;;;3.90;93.70;;;;;;4919112;29;20408;-74
2021/01/11 09:40:11;;;;;;;49.70;29.23;;;3.90;93.40;;;;;;4926008;29;20428;-76
2021/01/11 09:42:37;;;;;;;49.87;27.13;;;3.90;93.40;;;;;;4937366;29;20033;-76
2021/01/11 09:45:05;;;;;;;52.50;28.10;;;3.90;93.40;;;;;;4904721;29;20036;-74
2021/01/11 09:47:30;;;;;;;49.17;28.17;;;3.90;93.30;;;;;;4912155;29;20391;-76
2021/01/11 09:49:56;;;;;;;47.57;27.40;;;3.90;93.30;;;;;;4931961;29;20042;-76
2021/01/11 09:52:22;;;;;;;46.63;26.03;;;3.90;93.30;;;;;;4892729;29;20028;-76
2021/01/11 09:54:48;;;;;;;46.37;27.03;;;3.90;93.30;;;;;;4893927;29;20035;-75
2021/01/11 09:57:14;;;;;;;44.93;26.50;;;4.00;93.30;;;;;;4902676;29;20028;-75
2021/01/11 09:59:40;;;;;;;49.33;26.63;;;3.90;93.30;;;;;;4902813;29;20111;-75
2021/01/11 10:02:08;;;;;;;44.93;26.70;;;4.00;93.30;;;;;;4902957;29;20375;-74
2021/01/11 10:04:33;;;;;;;41.53;26.00;;;4.00;93.30;;;;;;4932224;29;20023;-75
2021/01/11 10:06:59;;;;;;;41.47;25.80;;;3.90;93.20;;;;;;4918856;29;20048;-75
2021/01/11 10:09:29;;;;;;;42.63;26.80;;;4.00;93.30;;;;;;4917614;29;20435;-75
2021/01/11 10:11:57;;;;;;;46.13;26.60;;;4.00;93.20;;;;;;4959186;28;20085;-74
2021/01/11 10:14:23;;;;;;;43.40;26.17;;;4.00;93.20;;;;;;4940981;28;20027;-75
2021/01/11 10:16:49;;;;;;;41.20;25.43;;;4.00;93.20;;;;;;4956471;28;20029;-75
2021/01/11 10:19:23;;;;;;;39.73;24.90;;;4.10;93.20;;;;;;4957930;28;20113;-76
2021/01/11 10:21:49;;;;;;;29.58;18.50;;;4.10;93.10;;;;;;4977392;28;20095;-75
2021/01/11 10:24:16;;;;;;;41.83;25.43;;;4.10;93.10;;;;;;4944061;28;20120;-76
2021/01/11 10:26:46;;;;;;;38.20;22.60;;;4.10;93.00;;;;;;4943861;28;20129;-74
2021/01/11 10:29:13;;;;;;;38.13;23.90;;;4.20;93.00;;;;;;4959669;28;20023;-75
2021/01/11 10:31:40;;;;;;;39.53;24.43;;;4.20;92.90;;;;;;4977320;28;20455;-74
2021/01/11 10:34:05;;;;;;;36.50;22.10;;;4.20;93.00;;;;;;4927812;28;20055;-75
2021/01/11 10:36:45;;;;;;;34.20;21.07;;;4.20;92.90;;;;;;4959642;28;20545;-75
2021/01/11 10:39:11;;;;;;;38.73;24.47;;;4.20;92.90;;;;;;4977116;28;20478;-76
2021/01/11 10:41:37;;;;;;;40.83;23.83;;;4.30;92.90;;;;;;4959580;28;20125;-75
2021/01/11 10:44:07;;;;;;;36.43;21.93;;;4.20;92.80;;;;;;4958045;28;20042;-75
2021/01/11 10:46:36;;;;;;;35.70;22.90;;;4.30;92.90;;;;;;4955829;28;20355;-75
2021/01/11 10:49:03;;;;;;;39.30;22.97;;;4.30;92.80;;;;;;4942893;28;20469;-74
2021/01/11 10:51:32;;;;;;;37.40;22.20;;;4.30;92.80;;;;;;4959453;28;20059;-74
2021/01/11 10:53:58;;;;;;;35.77;23.33;;;4.40;92.80;;;;;;4943761;28;20034;-75
2021/01/11 10:56:23;;;;;;;37.50;24.40;;;4.30;92.70;;;;;;4959873;28;20026;-75
2021/01/11 10:58:49;;;;;;;37.07;23.10;;;4.30;92.70;;;;;;4943453;28;20035;-75
2021/01/11 11:01:15;;;;;;;40.90;23.80;;;4.30;92.70;;;;;;4943761;28;20030;-77
2021/01/11 11:03:44;;;;;;;40.30;24.57;;;4.40;92.60;;;;;;4959549;28;20027;-75
2021/01/11 11:06:10;;;;;;;38.33;23.17;;;4.30;92.60;;;;;;4927635;28;20180;-74
2021/01/11 11:08:37;;;;;;;35.70;22.80;;;4.30;92.60;;;;;;4972778;28;20117;-75
2021/01/11 11:11:02;;;;;;;36.90;23.90;;;4.40;92.60;;;;;;4939430;29;20089;-76
2021/01/11 11:13:28;;;;;;;37.37;21.57;;;4.40;92.50;;;;;;4940673;28;20034;-76
2021/01/11 11:15:54;;;;;;;40.03;23.17;;;4.50;92.80;;;;;;4952854;29;20039;-74
2021/01/11 11:18:19;;;;;;;37.87;23.87;;;4.40;92.50;;;;;;4920893;29;20040;-74
2021/01/11 11:20:46;;;;;;;34.17;20.80;;;4.50;92.40;;;;;;4948203;28;20102;-75
2021/01/11 11:23:12;;;;;;;35.50;22.90;;;4.50;92.30;;;;;;4933295;29;20468;-76
2021/01/11 11:25:45;;;;;;;34.97;22.70;;;4.60;92.20;;;;;;4928540;29;20031;-75
2021/01/11 11:28:11;;;;;;;35.70;22.87;;;4.60;92.20;;;;;;4934341;29;20059;-76
2021/01/11 11:30:37;;;;;;;39.97;22.93;;;4.60;92.20;;;;;;4926444;29;20173;-75
2021/01/11 11:33:03;;;;;;;36.73;22.07;;;4.60;92.10;;;;;;4919522;29;20060;-76
2021/01/11 11:35:29;;;;;;;33.50;20.90;;;4.70;92.10;;;;;;4923786;29;20399;-77
2021/01/11 11:37:55;;;;;;;32.53;20.87;;;4.70;92.00;;;;;;4922732;29;20423;-76
2021/01/11 11:40:21;;;;;;;35.23;21.37;;;4.60;91.90;;;;;;4920500;29;20098;-76
2021/01/11 11:42:47;;;;;;;34.60;21.90;;;4.70;91.90;;;;;;4918443;29;20024;-75
2021/01/11 11:45:14;;;;;;;38.70;21.37;;;4.70;91.80;;;;;;4937935;29;20038;-75
2021/01/11 11:47:41;;;;;;;35.87;21.87;;;4.70;91.80;;;;;;4928399;29;20040;-74
2021/01/11 11:50:12;;;;;;;37.43;21.87;;;4.60;91.70;;;;;;4930998;29;20055;-76
2021/01/11 11:52:38;;;;;;;33.37;20.47;;;4.70;91.80;;;;;;4933233;29;20062;-75
2021/01/11 11:55:06;;;;;;;36.83;22.77;;;4.70;91.70;;;;;;4917217;29;20055;-74
2021/01/11 11:57:33;;;;;;;35.90;20.37;;;4.70;91.70;;;;;;4936449;29;20464;-75
2021/01/11 11:59:59;;;;;;;34.10;21.43;;;4.70;91.70;;;;;;4935895;29;20568;-74
2021/01/11 12:02:24;;;;;;;31.27;19.87;;;4.70;91.70;;;;;;4930468;29;20141;-75
2021/01/11 12:04:50;;;;;;;31.70;19.70;;;4.80;91.70;;;;;;4910956;29;20115;-75
2021/01/11 12:07:17;;;;;;;32.47;20.87;;;4.70;91.60;;;;;;4885632;29;20044;-75
2021/01/11 12:09:43;;;;;;;35.17;22.43;;;4.80;91.70;;;;;;4916246;29;20119;-74
2021/01/11 12:12:13;;;;;;;34.10;20.50;;;4.80;91.60;;;;;;4956604;28;20039;-76
2021/01/11 12:14:39;;;;;;;35.20;20.73;;;4.80;91.80;;;;;;4955022;29;20463;-76
2021/01/11 12:17:04;;;;;;;32.00;19.53;;;4.80;91.40;;;;;;4936195;29;20104;-75
2021/01/11 12:19:31;;;;;;;33.57;20.83;;;4.80;91.40;;;;;;4929023;29;20032;-75
2021/01/11 12:21:56;;;;;;;28.93;18.60;;;4.80;91.40;;;;;;4936844;29;20214;-75
2021/01/11 12:24:22;;;;;;;34.47;19.73;;;4.80;91.40;;;;;;4919885;29;20028;-76
2021/01/11 12:26:49;;;;;;;31.97;19.57;;;4.90;91.40;;;;;;4937170;29;20064;-75
2021/01/11 12:29:16;;;;;;;29.90;19.13;;;4.90;91.20;;;;;;4920285;29;20046;-76
2021/01/11 12:31:42;;;;;;;28.87;18.40;;;4.90;91.20;;;;;;4922584;29;20032;-74
2021/01/11 12:34:09;;;;;;;31.00;19.00;;;4.90;91.20;;;;;;4932884;29;20048;-76
2021/01/11 12:36:37;;;;;;;30.53;19.43;;;4.90;91.20;;;;;;4916289;29;20032;-74
2021/01/11 12:39:06;;;;;;;29.13;18.60;;;4.90;91.20;;;;;;4926677;29;20075;-75
2021/01/11 12:41:31;;;;;;;31.43;18.70;;;4.90;91.20;;;;;;4931821;29;20023;-75
2021/01/11 12:43:57;;;;;;;32.03;19.67;;;4.90;91.10;;;;;;4910989;29;20043;-75